sensor_id;sensor_type;location;lat;lon;timestamp;P1;durP1;ratioP1;P2;durP2;ratioP2
77078;SDS011;66004;55.096;38.760;2023-03-14T00:00:48;4.68;;;1.25;;
77078;SDS011;66004;55.096;38.760;2023-03-14T00:03:14;3.97;;;1.23;;
77078;SDS011;66004;55.096;38.760;2023-03-14T00:05:39;3.53;;;1.20;;
77078;SDS011;66004;55.096;38.760;2023-03-14T00:08:05;2.85;;;1.38;;
77078;SDS011;66004;55.096;38.760;2023-03-14T00:10:30;4.03;;;1.48;;
77078;SDS011;66004;55.096;38.760;2023-03-14T00:12:55;4.60;;;1.30;;
77078;SDS011;66004;55.096;38.760;2023-03-14T00:15:21;2.38;;;1.40;;
77078;SDS011;66004;55.096;38.760;2023-03-14T00:17:46;5.97;;;1.55;;
77078;SDS011;66004;55.096;38.760;2023-03-14T00:20:12;1.77;;;0.95;;
77078;SDS011;66004;55.096;38.760;2023-03-14T00:22:38;3.58;;;1.40;;
77078;SDS011;66004;55.096;38.760;2023-03-14T00:25:04;5.00;;;1.25;;
77078;SDS011;66004;55.096;38.760;2023-03-14T00:27:31;2.45;;;1.38;;
77078;SDS011;66004;55.096;38.760;2023-03-14T00:29:56;5.85;;;1.25;;
77078;SDS011;66004;55.096;38.760;2023-03-14T00:32:22;2.28;;;1.05;;
77078;SDS011;66004;55.096;38.760;2023-03-14T00:34:47;2.22;;;1.20;;
77078;SDS011;66004;55.096;38.760;2023-03-14T00:37:13;2.92;;;1.13;;
77078;SDS011;66004;55.096;38.760;2023-03-14T00:39:38;2.13;;;1.08;;
77078;SDS011;66004;55.096;38.760;2023-03-14T00:42:04;2.63;;;1.00;;
77078;SDS011;66004;55.096;38.760;2023-03-14T00:44:29;3.05;;;0.90;;
77078;SDS011;66004;55.096;38.760;2023-03-14T00:46:55;3.38;;;1.10;;
77078;SDS011;66004;55.096;38.760;2023-03-14T00:49:20;2.50;;;1.08;;
77078;SDS011;66004;55.096;38.760;2023-03-14T00:51:46;3.20;;;1.00;;
77078;SDS011;66004;55.096;38.760;2023-03-14T00:54:11;2.53;;;0.98;;
77078;SDS011;66004;55.096;38.760;2023-03-14T00:56:37;2.92;;;1.20;;
77078;SDS011;66004;55.096;38.760;2023-03-14T00:59:02;1.35;;;0.80;;
77078;SDS011;66004;55.096;38.760;2023-03-14T01:01:28;2.65;;;0.95;;
77078;SDS011;66004;55.096;38.760;2023-03-14T01:03:54;3.40;;;1.23;;
77078;SDS011;66004;55.096;38.760;2023-03-14T01:06:24;2.53;;;0.95;;
77078;SDS011;66004;55.096;38.760;2023-03-14T01:08:52;2.55;;;1.30;;
77078;SDS011;66004;55.096;38.760;2023-03-14T01:13:45;3.45;;;1.20;;
77078;SDS011;66004;55.096;38.760;2023-03-14T01:16:12;5.72;;;1.20;;
77078;SDS011;66004;55.096;38.760;2023-03-14T01:18:39;2.70;;;1.13;;
77078;SDS011;66004;55.096;38.760;2023-03-14T01:21:15;3.33;;;1.25;;
77078;SDS011;66004;55.096;38.760;2023-03-14T01:23:41;6.13;;;1.67;;
77078;SDS011;66004;55.096;38.760;2023-03-14T01:26:11;3.97;;;1.73;;
77078;SDS011;66004;55.096;38.760;2023-03-14T01:28:38;5.03;;;1.50;;
77078;SDS011;66004;55.096;38.760;2023-03-14T01:31:05;4.15;;;1.40;;
77078;SDS011;66004;55.096;38.760;2023-03-14T01:33:32;5.38;;;1.58;;
77078;SDS011;66004;55.096;38.760;2023-03-14T01:35:58;4.32;;;1.58;;
77078;SDS011;66004;55.096;38.760;2023-03-14T01:38:24;6.32;;;2.55;;
77078;SDS011;66004;55.096;38.760;2023-03-14T01:40:49;3.53;;;1.52;;
77078;SDS011;66004;55.096;38.760;2023-03-14T01:43:16;5.45;;;2.20;;
77078;SDS011;66004;55.096;38.760;2023-03-14T01:48:32;4.45;;;1.40;;
77078;SDS011;66004;55.096;38.760;2023-03-14T01:51:03;4.43;;;2.00;;
77078;SDS011;66004;55.096;38.760;2023-03-14T01:53:31;3.35;;;1.50;;
77078;SDS011;66004;55.096;38.760;2023-03-14T01:55:57;6.47;;;1.88;;
77078;SDS011;66004;55.096;38.760;2023-03-14T01:58:22;3.58;;;1.42;;
77078;SDS011;66004;55.096;38.760;2023-03-14T02:00:52;2.65;;;1.50;;
77078;SDS011;66004;55.096;38.760;2023-03-14T02:03:22;3.15;;;1.65;;
77078;SDS011;66004;55.096;38.760;2023-03-14T02:05:50;6.78;;;1.60;;
77078;SDS011;66004;55.096;38.760;2023-03-14T02:08:19;3.63;;;1.13;;
77078;SDS011;66004;55.096;38.760;2023-03-14T02:10:47;3.50;;;1.45;;
77078;SDS011;66004;55.096;38.760;2023-03-14T02:13:15;3.17;;;1.40;;
77078;SDS011;66004;55.096;38.760;2023-03-14T02:15:42;2.28;;;0.95;;
77078;SDS011;66004;55.096;38.760;2023-03-14T02:18:08;1.63;;;0.93;;
77078;SDS011;66004;55.096;38.760;2023-03-14T02:20:59;2.33;;;1.17;;
77078;SDS011;66004;55.096;38.760;2023-03-14T02:26:28;5.18;;;1.17;;
77078;SDS011;66004;55.096;38.760;2023-03-14T02:29:01;2.00;;;1.38;;
77078;SDS011;66004;55.096;38.760;2023-03-14T02:31:27;1.73;;;1.20;;
77078;SDS011;66004;55.096;38.760;2023-03-14T02:33:53;2.60;;;1.27;;
77078;SDS011;66004;55.096;38.760;2023-03-14T02:38:53;2.17;;;1.02;;
77078;SDS011;66004;55.096;38.760;2023-03-14T02:41:28;2.28;;;1.33;;
77078;SDS011;66004;55.096;38.760;2023-03-14T02:43:54;3.63;;;1.48;;
77078;SDS011;66004;55.096;38.760;2023-03-14T02:46:21;2.75;;;1.00;;
77078;SDS011;66004;55.096;38.760;2023-03-14T02:52:54;3.25;;;1.20;;
77078;SDS011;66004;55.096;38.760;2023-03-14T02:55:20;2.58;;;1.15;;
77078;SDS011;66004;55.096;38.760;2023-03-14T02:57:47;3.13;;;1.45;;
77078;SDS011;66004;55.096;38.760;2023-03-14T03:00:12;3.03;;;1.45;;
77078;SDS011;66004;55.096;38.760;2023-03-14T03:02:38;2.88;;;1.40;;
77078;SDS011;66004;55.096;38.760;2023-03-14T03:05:04;2.97;;;1.40;;
77078;SDS011;66004;55.096;38.760;2023-03-14T03:07:29;3.10;;;1.00;;
77078;SDS011;66004;55.096;38.760;2023-03-14T03:09:55;2.00;;;1.42;;
77078;SDS011;66004;55.096;38.760;2023-03-14T03:12:21;2.75;;;1.63;;
77078;SDS011;66004;55.096;38.760;2023-03-14T03:14:46;2.80;;;1.20;;
77078;SDS011;66004;55.096;38.760;2023-03-14T03:17:12;3.25;;;1.15;;
77078;SDS011;66004;55.096;38.760;2023-03-14T03:19:38;2.97;;;1.38;;
77078;SDS011;66004;55.096;38.760;2023-03-14T03:22:03;3.45;;;1.33;;
77078;SDS011;66004;55.096;38.760;2023-03-14T03:24:29;3.08;;;1.40;;
77078;SDS011;66004;55.096;38.760;2023-03-14T03:26:54;2.63;;;1.45;;
77078;SDS011;66004;55.096;38.760;2023-03-14T03:29:20;4.45;;;1.85;;
77078;SDS011;66004;55.096;38.760;2023-03-14T03:31:46;2.35;;;1.20;;
77078;SDS011;66004;55.096;38.760;2023-03-14T03:34:12;2.95;;;1.60;;
77078;SDS011;66004;55.096;38.760;2023-03-14T03:36:38;6.80;;;1.27;;
77078;SDS011;66004;55.096;38.760;2023-03-14T03:39:04;1.67;;;1.20;;
77078;SDS011;66004;55.096;38.760;2023-03-14T03:41:30;2.33;;;0.95;;
77078;SDS011;66004;55.096;38.760;2023-03-14T03:43:55;2.33;;;1.35;;
77078;SDS011;66004;55.096;38.760;2023-03-14T03:46:21;3.67;;;1.40;;
77078;SDS011;66004;55.096;38.760;2023-03-14T03:48:47;4.47;;;1.23;;
77078;SDS011;66004;55.096;38.760;2023-03-14T03:51:13;2.25;;;1.10;;
77078;SDS011;66004;55.096;38.760;2023-03-14T03:53:40;5.90;;;1.60;;
77078;SDS011;66004;55.096;38.760;2023-03-14T03:56:07;2.47;;;1.45;;
77078;SDS011;66004;55.096;38.760;2023-03-14T03:58:33;3.40;;;1.40;;
77078;SDS011;66004;55.096;38.760;2023-03-14T04:00:58;3.22;;;1.20;;
77078;SDS011;66004;55.096;38.760;2023-03-14T04:03:24;2.55;;;1.17;;
77078;SDS011;66004;55.096;38.760;2023-03-14T04:05:59;1.88;;;1.38;;
77078;SDS011;66004;55.096;38.760;2023-03-14T04:08:30;4.10;;;1.20;;
77078;SDS011;66004;55.096;38.760;2023-03-14T04:10:56;3.55;;;1.30;;
77078;SDS011;66004;55.096;38.760;2023-03-14T04:13:23;3.70;;;1.40;;
77078;SDS011;66004;55.096;38.760;2023-03-14T04:15:49;2.10;;;1.10;;
77078;SDS011;66004;55.096;38.760;2023-03-14T04:18:15;3.88;;;1.38;;
77078;SDS011;66004;55.096;38.760;2023-03-14T04:20:40;3.35;;;1.60;;
77078;SDS011;66004;55.096;38.760;2023-03-14T04:23:06;12.82;;;4.07;;
77078;SDS011;66004;55.096;38.760;2023-03-14T04:25:31;2.55;;;1.13;;
77078;SDS011;66004;55.096;38.760;2023-03-14T04:27:57;2.55;;;1.10;;
77078;SDS011;66004;55.096;38.760;2023-03-14T04:30:22;10.05;;;1.45;;
77078;SDS011;66004;55.096;38.760;2023-03-14T04:32:48;21.75;;;6.85;;
77078;SDS011;66004;55.096;38.760;2023-03-14T04:35:13;20.10;;;6.60;;
77078;SDS011;66004;55.096;38.760;2023-03-14T04:37:39;14.80;;;5.68;;
77078;SDS011;66004;55.096;38.760;2023-03-14T04:40:07;10.90;;;4.72;;
77078;SDS011;66004;55.096;38.760;2023-03-14T04:42:33;7.57;;;2.88;;
77078;SDS011;66004;55.096;38.760;2023-03-14T04:44:59;5.95;;;2.40;;
77078;SDS011;66004;55.096;38.760;2023-03-14T04:47:25;8.68;;;2.08;;
77078;SDS011;66004;55.096;38.760;2023-03-14T04:49:50;3.78;;;2.00;;
77078;SDS011;66004;55.096;38.760;2023-03-14T04:52:16;5.13;;;2.42;;
77078;SDS011;66004;55.096;38.760;2023-03-14T04:54:41;4.38;;;2.22;;
77078;SDS011;66004;55.096;38.760;2023-03-14T04:57:07;8.00;;;2.55;;
77078;SDS011;66004;55.096;38.760;2023-03-14T04:59:32;3.88;;;1.63;;
77078;SDS011;66004;55.096;38.760;2023-03-14T05:01:58;4.85;;;1.45;;
77078;SDS011;66004;55.096;38.760;2023-03-14T05:04:23;4.60;;;1.50;;
77078;SDS011;66004;55.096;38.760;2023-03-14T05:06:49;3.40;;;1.65;;
77078;SDS011;66004;55.096;38.760;2023-03-14T05:09:14;4.70;;;1.63;;
77078;SDS011;66004;55.096;38.760;2023-03-14T05:11:40;4.32;;;1.40;;
77078;SDS011;66004;55.096;38.760;2023-03-14T05:14:06;4.10;;;2.10;;
77078;SDS011;66004;55.096;38.760;2023-03-14T05:16:31;3.08;;;1.60;;
77078;SDS011;66004;55.096;38.760;2023-03-14T05:18:57;2.30;;;1.30;;
77078;SDS011;66004;55.096;38.760;2023-03-14T05:21:22;3.47;;;1.40;;
77078;SDS011;66004;55.096;38.760;2023-03-14T05:23:48;2.17;;;1.20;;
77078;SDS011;66004;55.096;38.760;2023-03-14T05:26:13;2.58;;;1.40;;
77078;SDS011;66004;55.096;38.760;2023-03-14T05:28:41;3.58;;;1.13;;
77078;SDS011;66004;55.096;38.760;2023-03-14T05:31:07;2.30;;;1.35;;
77078;SDS011;66004;55.096;38.760;2023-03-14T05:33:33;3.50;;;1.70;;
77078;SDS011;66004;55.096;38.760;2023-03-14T05:35:59;5.07;;;1.25;;
77078;SDS011;66004;55.096;38.760;2023-03-14T05:38:24;3.65;;;1.15;;
77078;SDS011;66004;55.096;38.760;2023-03-14T05:40:56;2.25;;;1.25;;
77078;SDS011;66004;55.096;38.760;2023-03-14T05:43:22;3.63;;;1.25;;
77078;SDS011;66004;55.096;38.760;2023-03-14T05:45:54;2.92;;;1.60;;
77078;SDS011;66004;55.096;38.760;2023-03-14T05:48:19;2.88;;;1.33;;
77078;SDS011;66004;55.096;38.760;2023-03-14T05:50:46;3.10;;;1.40;;
77078;SDS011;66004;55.096;38.760;2023-03-14T05:53:12;2.80;;;1.40;;
77078;SDS011;66004;55.096;38.760;2023-03-14T05:55:38;3.75;;;1.42;;
77078;SDS011;66004;55.096;38.760;2023-03-14T05:58:03;2.95;;;1.45;;
77078;SDS011;66004;55.096;38.760;2023-03-14T06:00:29;3.65;;;1.67;;
77078;SDS011;66004;55.096;38.760;2023-03-14T06:02:54;5.28;;;2.17;;
77078;SDS011;66004;55.096;38.760;2023-03-14T06:05:20;3.35;;;1.55;;
77078;SDS011;66004;55.096;38.760;2023-03-14T06:07:45;3.45;;;1.83;;
77078;SDS011;66004;55.096;38.760;2023-03-14T06:10:11;3.63;;;1.70;;
77078;SDS011;66004;55.096;38.760;2023-03-14T06:12:37;4.55;;;1.50;;
77078;SDS011;66004;55.096;38.760;2023-03-14T06:15:02;4.00;;;1.60;;
77078;SDS011;66004;55.096;38.760;2023-03-14T06:17:28;4.30;;;1.52;;
77078;SDS011;66004;55.096;38.760;2023-03-14T06:19:53;2.85;;;1.40;;
77078;SDS011;66004;55.096;38.760;2023-03-14T06:22:19;3.58;;;1.33;;
77078;SDS011;66004;55.096;38.760;2023-03-14T06:24:44;5.18;;;2.22;;
77078;SDS011;66004;55.096;38.760;2023-03-14T06:27:10;5.00;;;1.85;;
77078;SDS011;66004;55.096;38.760;2023-03-14T06:29:35;5.00;;;2.15;;
77078;SDS011;66004;55.096;38.760;2023-03-14T06:32:01;5.90;;;1.88;;
77078;SDS011;66004;55.096;38.760;2023-03-14T06:34:27;6.07;;;1.85;;
77078;SDS011;66004;55.096;38.760;2023-03-14T06:36:52;9.30;;;2.70;;
77078;SDS011;66004;55.096;38.760;2023-03-14T06:39:18;4.00;;;1.92;;
77078;SDS011;66004;55.096;38.760;2023-03-14T06:41:43;3.90;;;1.95;;
77078;SDS011;66004;55.096;38.760;2023-03-14T06:44:09;7.28;;;2.28;;
77078;SDS011;66004;55.096;38.760;2023-03-14T06:46:34;3.00;;;1.70;;
77078;SDS011;66004;55.096;38.760;2023-03-14T06:49:00;3.58;;;2.00;;
77078;SDS011;66004;55.096;38.760;2023-03-14T06:51:25;3.25;;;1.58;;
77078;SDS011;66004;55.096;38.760;2023-03-14T06:53:51;4.50;;;2.13;;
77078;SDS011;66004;55.096;38.760;2023-03-14T06:56:16;4.53;;;2.17;;
77078;SDS011;66004;55.096;38.760;2023-03-14T06:58:42;6.25;;;2.00;;
77078;SDS011;66004;55.096;38.760;2023-03-14T07:01:14;3.63;;;2.20;;
77078;SDS011;66004;55.096;38.760;2023-03-14T07:03:46;3.75;;;1.77;;
77078;SDS011;66004;55.096;38.760;2023-03-14T07:06:11;3.05;;;1.65;;
77078;SDS011;66004;55.096;38.760;2023-03-14T07:08:37;4.63;;;2.25;;
77078;SDS011;66004;55.096;38.760;2023-03-14T07:11:04;3.70;;;1.80;;
77078;SDS011;66004;55.096;38.760;2023-03-14T07:13:30;4.22;;;1.77;;
77078;SDS011;66004;55.096;38.760;2023-03-14T07:15:55;4.88;;;2.20;;
77078;SDS011;66004;55.096;38.760;2023-03-14T07:18:21;2.88;;;1.35;;
77078;SDS011;66004;55.096;38.760;2023-03-14T07:20:46;5.80;;;1.70;;
77078;SDS011;66004;55.096;38.760;2023-03-14T07:23:12;7.97;;;2.67;;
77078;SDS011;66004;55.096;38.760;2023-03-14T07:25:37;4.03;;;1.92;;
77078;SDS011;66004;55.096;38.760;2023-03-14T07:28:03;6.47;;;2.08;;
77078;SDS011;66004;55.096;38.760;2023-03-14T07:30:28;7.20;;;2.38;;
77078;SDS011;66004;55.096;38.760;2023-03-14T07:32:53;5.07;;;2.30;;
77078;SDS011;66004;55.096;38.760;2023-03-14T07:35:19;6.60;;;1.90;;
77078;SDS011;66004;55.096;38.760;2023-03-14T07:37:44;4.80;;;2.00;;
77078;SDS011;66004;55.096;38.760;2023-03-14T07:40:10;6.93;;;2.53;;
77078;SDS011;66004;55.096;38.760;2023-03-14T07:42:39;3.45;;;1.80;;
77078;SDS011;66004;55.096;38.760;2023-03-14T07:45:05;6.90;;;2.40;;
77078;SDS011;66004;55.096;38.760;2023-03-14T07:47:32;6.60;;;2.25;;
77078;SDS011;66004;55.096;38.760;2023-03-14T07:49:57;3.70;;;1.95;;
77078;SDS011;66004;55.096;38.760;2023-03-14T07:52:22;3.83;;;1.80;;
77078;SDS011;66004;55.096;38.760;2023-03-14T07:54:49;6.13;;;1.98;;
77078;SDS011;66004;55.096;38.760;2023-03-14T07:57:14;4.90;;;2.00;;
77078;SDS011;66004;55.096;38.760;2023-03-14T07:59:40;4.53;;;1.98;;
77078;SDS011;66004;55.096;38.760;2023-03-14T08:02:07;7.50;;;2.50;;
77078;SDS011;66004;55.096;38.760;2023-03-14T08:04:36;4.60;;;2.00;;
77078;SDS011;66004;55.096;38.760;2023-03-14T08:07:03;3.80;;;1.83;;
77078;SDS011;66004;55.096;38.760;2023-03-14T08:09:28;5.28;;;2.13;;
77078;SDS011;66004;55.096;38.760;2023-03-14T08:11:54;5.20;;;2.33;;
77078;SDS011;66004;55.096;38.760;2023-03-14T08:14:19;3.03;;;1.67;;
77078;SDS011;66004;55.096;38.760;2023-03-14T08:16:45;4.97;;;2.90;;
77078;SDS011;66004;55.096;38.760;2023-03-14T08:19:10;5.55;;;2.45;;
77078;SDS011;66004;55.096;38.760;2023-03-14T08:21:36;8.18;;;2.28;;
77078;SDS011;66004;55.096;38.760;2023-03-14T08:24:02;3.55;;;2.00;;
77078;SDS011;66004;55.096;38.760;2023-03-14T08:26:27;5.65;;;2.42;;
77078;SDS011;66004;55.096;38.760;2023-03-14T08:28:53;4.75;;;2.42;;
77078;SDS011;66004;55.096;38.760;2023-03-14T08:31:18;6.55;;;2.63;;
77078;SDS011;66004;55.096;38.760;2023-03-14T08:33:44;6.97;;;2.60;;
77078;SDS011;66004;55.096;38.760;2023-03-14T08:36:09;5.35;;;2.50;;
77078;SDS011;66004;55.096;38.760;2023-03-14T08:41:01;7.70;;;3.17;;
77078;SDS011;66004;55.096;38.760;2023-03-14T08:43:28;6.05;;;3.05;;
77078;SDS011;66004;55.096;38.760;2023-03-14T08:45:57;4.38;;;2.08;;
77078;SDS011;66004;55.096;38.760;2023-03-14T08:48:23;4.95;;;2.20;;
77078;SDS011;66004;55.096;38.760;2023-03-14T08:52:54;5.85;;;2.10;;
77078;SDS011;66004;55.096;38.760;2023-03-14T08:55:20;7.63;;;4.15;;
77078;SDS011;66004;55.096;38.760;2023-03-14T08:57:45;4.53;;;2.05;;
77078;SDS011;66004;55.096;38.760;2023-03-14T09:00:11;5.80;;;2.10;;
77078;SDS011;66004;55.096;38.760;2023-03-14T09:02:41;3.33;;;2.17;;
77078;SDS011;66004;55.096;38.760;2023-03-14T09:05:08;6.50;;;2.40;;
77078;SDS011;66004;55.096;38.760;2023-03-14T09:07:35;4.95;;;2.05;;
77078;SDS011;66004;55.096;38.760;2023-03-14T09:10:00;5.03;;;2.22;;
77078;SDS011;66004;55.096;38.760;2023-03-14T09:12:26;3.42;;;2.20;;
77078;SDS011;66004;55.096;38.760;2023-03-14T09:14:51;4.25;;;2.13;;
77078;SDS011;66004;55.096;38.760;2023-03-14T09:17:17;4.75;;;2.50;;
77078;SDS011;66004;55.096;38.760;2023-03-14T09:19:42;6.53;;;2.33;;
77078;SDS011;66004;55.096;38.760;2023-03-14T09:22:08;3.75;;;2.03;;
77078;SDS011;66004;55.096;38.760;2023-03-14T09:24:33;6.07;;;2.97;;
77078;SDS011;66004;55.096;38.760;2023-03-14T09:26:59;6.63;;;2.75;;
77078;SDS011;66004;55.096;38.760;2023-03-14T09:29:25;7.00;;;2.38;;
77078;SDS011;66004;55.096;38.760;2023-03-14T09:31:50;4.80;;;2.17;;
77078;SDS011;66004;55.096;38.760;2023-03-14T09:34:16;5.72;;;2.38;;
77078;SDS011;66004;55.096;38.760;2023-03-14T09:36:42;5.53;;;2.70;;
77078;SDS011;66004;55.096;38.760;2023-03-14T09:39:09;4.63;;;2.20;;
77078;SDS011;66004;55.096;38.760;2023-03-14T09:46:38;7.00;;;3.05;;
77078;SDS011;66004;55.096;38.760;2023-03-14T09:49:11;4.90;;;2.10;;
77078;SDS011;66004;55.096;38.760;2023-03-14T09:51:45;3.40;;;2.20;;
77078;SDS011;66004;55.096;38.760;2023-03-14T09:54:35;5.97;;;2.75;;
77078;SDS011;66004;55.096;38.760;2023-03-14T09:57:08;7.28;;;3.03;;
77078;SDS011;66004;55.096;38.760;2023-03-14T09:59:38;6.60;;;2.70;;
77078;SDS011;66004;55.096;38.760;2023-03-14T10:02:14;5.18;;;2.35;;
77078;SDS011;66004;55.096;38.760;2023-03-14T10:04:49;7.47;;;3.60;;
77078;SDS011;66004;55.096;38.760;2023-03-14T10:07:37;5.80;;;2.40;;
77078;SDS011;66004;55.096;38.760;2023-03-14T10:10:08;24.20;;;2.97;;
77078;SDS011;66004;55.096;38.760;2023-03-14T10:12:46;5.72;;;2.90;;
77078;SDS011;66004;55.096;38.760;2023-03-14T10:15:22;6.85;;;3.42;;
77078;SDS011;66004;55.096;38.760;2023-03-14T10:17:55;7.00;;;2.92;;
77078;SDS011;66004;55.096;38.760;2023-03-14T10:25:37;7.22;;;2.88;;
77078;SDS011;66004;55.096;38.760;2023-03-14T10:28:10;6.25;;;2.90;;
77078;SDS011;66004;55.096;38.760;2023-03-14T10:30:48;7.78;;;2.80;;
77078;SDS011;66004;55.096;38.760;2023-03-14T10:35:42;8.85;;;3.13;;
77078;SDS011;66004;55.096;38.760;2023-03-14T10:38:10;5.38;;;3.03;;
77078;SDS011;66004;55.096;38.760;2023-03-14T10:40:39;7.20;;;3.08;;
77078;SDS011;66004;55.096;38.760;2023-03-14T10:43:07;7.15;;;3.38;;
77078;SDS011;66004;55.096;38.760;2023-03-14T10:45:41;9.13;;;3.20;;
77078;SDS011;66004;55.096;38.760;2023-03-14T10:48:21;11.00;;;3.38;;
77078;SDS011;66004;55.096;38.760;2023-03-14T10:53:38;8.10;;;3.78;;
77078;SDS011;66004;55.096;38.760;2023-03-14T10:56:07;5.75;;;2.88;;
77078;SDS011;66004;55.096;38.760;2023-03-14T10:58:38;5.50;;;2.97;;
77078;SDS011;66004;55.096;38.760;2023-03-14T11:03:42;9.02;;;3.20;;
77078;SDS011;66004;55.096;38.760;2023-03-14T11:06:15;5.15;;;2.35;;
77078;SDS011;66004;55.096;38.760;2023-03-14T11:11:39;8.57;;;2.95;;
77078;SDS011;66004;55.096;38.760;2023-03-14T11:17:01;6.18;;;2.90;;
77078;SDS011;66004;55.096;38.760;2023-03-14T11:22:21;5.43;;;2.65;;
77078;SDS011;66004;55.096;38.760;2023-03-14T11:25:04;10.88;;;3.28;;
77078;SDS011;66004;55.096;38.760;2023-03-14T11:37:49;4.68;;;2.55;;
77078;SDS011;66004;55.096;38.760;2023-03-14T11:40:21;5.85;;;2.58;;
77078;SDS011;66004;55.096;38.760;2023-03-14T11:45:34;5.45;;;2.60;;
77078;SDS011;66004;55.096;38.760;2023-03-14T11:50:57;9.00;;;3.10;;
77078;SDS011;66004;55.096;38.760;2023-03-14T11:56:26;6.15;;;2.88;;
77078;SDS011;66004;55.096;38.760;2023-03-14T11:58:58;8.68;;;3.22;;
77078;SDS011;66004;55.096;38.760;2023-03-14T12:01:31;5.82;;;3.10;;
77078;SDS011;66004;55.096;38.760;2023-03-14T12:04:31;5.88;;;2.95;;
77078;SDS011;66004;55.096;38.760;2023-03-14T12:09:54;4.38;;;2.75;;
77078;SDS011;66004;55.096;38.760;2023-03-14T12:12:21;4.97;;;2.80;;
77078;SDS011;66004;55.096;38.760;2023-03-14T12:14:54;6.20;;;2.88;;
77078;SDS011;66004;55.096;38.760;2023-03-14T12:17:27;4.43;;;2.55;;
77078;SDS011;66004;55.096;38.760;2023-03-14T12:20:01;6.50;;;2.58;;
77078;SDS011;66004;55.096;38.760;2023-03-14T12:25:23;5.90;;;2.05;;
77078;SDS011;66004;55.096;38.760;2023-03-14T12:35:50;3.33;;;1.80;;
77078;SDS011;66004;55.096;38.760;2023-03-14T12:43:45;5.95;;;3.08;;
77078;SDS011;66004;55.096;38.760;2023-03-14T12:51:42;7.35;;;3.00;;
77078;SDS011;66004;55.096;38.760;2023-03-14T12:59:46;6.05;;;2.97;;
77078;SDS011;66004;55.096;38.760;2023-03-14T13:07:29;4.80;;;2.40;;
77078;SDS011;66004;55.096;38.760;2023-03-14T13:12:41;6.78;;;2.63;;
77078;SDS011;66004;55.096;38.760;2023-03-14T13:15:33;7.55;;;2.45;;
77078;SDS011;66004;55.096;38.760;2023-03-14T13:18:13;7.60;;;2.80;;
77078;SDS011;66004;55.096;38.760;2023-03-14T13:20:52;7.63;;;3.00;;
77078;SDS011;66004;55.096;38.760;2023-03-14T13:23:24;4.43;;;2.65;;
77078;SDS011;66004;55.096;38.760;2023-03-14T13:25:52;9.07;;;3.22;;
77078;SDS011;66004;55.096;38.760;2023-03-14T13:28:18;5.60;;;2.53;;
77078;SDS011;66004;55.096;38.760;2023-03-14T13:30:48;4.97;;;2.30;;
77078;SDS011;66004;55.096;38.760;2023-03-14T13:33:20;5.97;;;2.22;;
77078;SDS011;66004;55.096;38.760;2023-03-14T13:35:48;8.27;;;2.72;;
77078;SDS011;66004;55.096;38.760;2023-03-14T13:38:21;6.55;;;2.90;;
77078;SDS011;66004;55.096;38.760;2023-03-14T13:40:51;6.40;;;2.78;;
77078;SDS011;66004;55.096;38.760;2023-03-14T13:46:15;8.48;;;2.72;;
77078;SDS011;66004;55.096;38.760;2023-03-14T13:48:45;7.38;;;2.33;;
77078;SDS011;66004;55.096;38.760;2023-03-14T13:51:17;6.78;;;2.60;;
77078;SDS011;66004;55.096;38.760;2023-03-14T13:53:49;5.85;;;2.47;;
77078;SDS011;66004;55.096;38.760;2023-03-14T13:56:19;6.03;;;2.95;;
77078;SDS011;66004;55.096;38.760;2023-03-14T13:58:46;5.85;;;2.25;;
77078;SDS011;66004;55.096;38.760;2023-03-14T14:03:58;4.75;;;2.53;;
77078;SDS011;66004;55.096;38.760;2023-03-14T14:06:32;6.75;;;2.58;;
77078;SDS011;66004;55.096;38.760;2023-03-14T14:09:14;5.40;;;2.83;;
77078;SDS011;66004;55.096;38.760;2023-03-14T14:11:42;8.30;;;2.53;;
77078;SDS011;66004;55.096;38.760;2023-03-14T14:14:12;6.75;;;2.42;;
77078;SDS011;66004;55.096;38.760;2023-03-14T14:16:43;5.78;;;2.28;;
77078;SDS011;66004;55.096;38.760;2023-03-14T14:19:11;4.55;;;2.42;;
77078;SDS011;66004;55.096;38.760;2023-03-14T14:21:37;8.07;;;2.15;;
77078;SDS011;66004;55.096;38.760;2023-03-14T14:24:03;7.25;;;2.47;;
77078;SDS011;66004;55.096;38.760;2023-03-14T14:26:30;4.20;;;1.98;;
77078;SDS011;66004;55.096;38.760;2023-03-14T14:29:00;5.10;;;1.80;;
77078;SDS011;66004;55.096;38.760;2023-03-14T14:31:28;7.25;;;2.20;;
77078;SDS011;66004;55.096;38.760;2023-03-14T14:36:22;4.68;;;2.17;;
77078;SDS011;66004;55.096;38.760;2023-03-14T14:38:51;7.20;;;2.50;;
77078;SDS011;66004;55.096;38.760;2023-03-14T14:41:26;6.35;;;1.80;;
77078;SDS011;66004;55.096;38.760;2023-03-14T14:43:53;7.88;;;2.25;;
77078;SDS011;66004;55.096;38.760;2023-03-14T14:46:20;4.63;;;2.08;;
77078;SDS011;66004;55.096;38.760;2023-03-14T14:48:45;4.72;;;1.80;;
77078;SDS011;66004;55.096;38.760;2023-03-14T14:53:13;5.38;;;2.28;;
77078;SDS011;66004;55.096;38.760;2023-03-14T14:56:00;3.50;;;1.50;;
77078;SDS011;66004;55.096;38.760;2023-03-14T14:58:36;3.30;;;1.65;;
77078;SDS011;66004;55.096;38.760;2023-03-14T15:01:11;6.68;;;1.85;;
77078;SDS011;66004;55.096;38.760;2023-03-14T15:03:51;4.07;;;1.88;;
77078;SDS011;66004;55.096;38.760;2023-03-14T15:06:19;3.00;;;1.88;;
77078;SDS011;66004;55.096;38.760;2023-03-14T15:08:45;5.15;;;1.85;;
77078;SDS011;66004;55.096;38.760;2023-03-14T15:11:16;5.35;;;2.03;;
77078;SDS011;66004;55.096;38.760;2023-03-14T15:13:53;5.70;;;1.77;;
77078;SDS011;66004;55.096;38.760;2023-03-14T15:16:22;2.60;;;1.50;;
77078;SDS011;66004;55.096;38.760;2023-03-14T15:18:53;3.63;;;2.70;;
77078;SDS011;66004;55.096;38.760;2023-03-14T15:21:20;3.30;;;1.55;;
77078;SDS011;66004;55.096;38.760;2023-03-14T15:23:46;3.05;;;1.55;;
77078;SDS011;66004;55.096;38.760;2023-03-14T15:26:15;4.50;;;1.55;;
77078;SDS011;66004;55.096;38.760;2023-03-14T15:31:11;4.57;;;1.45;;
77078;SDS011;66004;55.096;38.760;2023-03-14T15:36:03;4.80;;;2.28;;
77078;SDS011;66004;55.096;38.760;2023-03-14T15:38:29;4.00;;;1.52;;
77078;SDS011;66004;55.096;38.760;2023-03-14T15:40:55;4.15;;;1.80;;
77078;SDS011;66004;55.096;38.760;2023-03-14T15:43:21;6.20;;;1.77;;
77078;SDS011;66004;55.096;38.760;2023-03-14T15:45:46;5.93;;;1.65;;
77078;SDS011;66004;55.096;38.760;2023-03-14T15:48:16;3.75;;;1.83;;
77078;SDS011;66004;55.096;38.760;2023-03-14T15:50:43;2.22;;;1.35;;
77078;SDS011;66004;55.096;38.760;2023-03-14T15:53:09;3.78;;;1.35;;
77078;SDS011;66004;55.096;38.760;2023-03-14T15:55:35;6.32;;;1.70;;
77078;SDS011;66004;55.096;38.760;2023-03-14T15:58:01;4.97;;;2.13;;
77078;SDS011;66004;55.096;38.760;2023-03-14T16:00:27;5.22;;;1.67;;
77078;SDS011;66004;55.096;38.760;2023-03-14T16:02:54;6.75;;;1.90;;
77078;SDS011;66004;55.096;38.760;2023-03-14T16:05:20;3.35;;;1.30;;
77078;SDS011;66004;55.096;38.760;2023-03-14T16:07:45;3.72;;;1.58;;
77078;SDS011;66004;55.096;38.760;2023-03-14T16:10:12;6.50;;;1.58;;
77078;SDS011;66004;55.096;38.760;2023-03-14T16:12:39;5.05;;;1.42;;
77078;SDS011;66004;55.096;38.760;2023-03-14T16:15:05;5.35;;;2.05;;
77078;SDS011;66004;55.096;38.760;2023-03-14T16:17:31;3.20;;;1.52;;
77078;SDS011;66004;55.096;38.760;2023-03-14T16:19:57;3.20;;;1.65;;
77078;SDS011;66004;55.096;38.760;2023-03-14T16:22:23;4.97;;;1.33;;
77078;SDS011;66004;55.096;38.760;2023-03-14T16:24:48;4.50;;;1.70;;
77078;SDS011;66004;55.096;38.760;2023-03-14T16:27:14;6.47;;;1.80;;
77078;SDS011;66004;55.096;38.760;2023-03-14T16:29:40;3.95;;;1.35;;
77078;SDS011;66004;55.096;38.760;2023-03-14T16:32:06;7.60;;;1.83;;
77078;SDS011;66004;55.096;38.760;2023-03-14T16:34:32;1.90;;;1.17;;